sensor_id;sensor_type;location;lat;lon;timestamp;temperature;humidity
7014;DHT22;3547;50.774;12.918;2023-04-08T00:00:54;4.20;99.90
7014;DHT22;3547;50.774;12.918;2023-04-08T00:03:20;4.10;99.90
7014;DHT22;3547;50.774;12.918;2023-04-08T00:05:46;4.20;99.90
7014;DHT22;3547;50.774;12.918;2023-04-08T00:08:12;4.30;99.90
7014;DHT22;3547;50.774;12.918;2023-04-08T00:10:38;4.40;99.90
7014;DHT22;3547;50.774;12.918;2023-04-08T00:13:05;4.50;99.90
7014;DHT22;3547;50.774;12.918;2023-04-08T00:15:31;4.60;99.90
7014;DHT22;3547;50.774;12.918;2023-04-08T00:17:57;4.60;99.90
7014;DHT22;3547;50.774;12.918;2023-04-08T00:20:24;4.30;99.90
7014;DHT22;3547;50.774;12.918;2023-04-08T00:22:50;4.30;99.90
7014;DHT22;3547;50.774;12.918;2023-04-08T00:25:16;4.20;99.90
7014;DHT22;3547;50.774;12.918;2023-04-08T00:27:42;4.30;99.90
7014;DHT22;3547;50.774;12.918;2023-04-08T00:30:09;4.40;99.90
7014;DHT22;3547;50.774;12.918;2023-04-08T00:32:35;4.40;99.90
7014;DHT22;3547;50.774;12.918;2023-04-08T00:35:01;4.50;99.90
7014;DHT22;3547;50.774;12.918;2023-04-08T00:37:28;4.20;99.90
7014;DHT22;3547;50.774;12.918;2023-04-08T00:39:54;4.10;99.90
7014;DHT22;3547;50.774;12.918;2023-04-08T00:42:20;4.00;99.90
7014;DHT22;3547;50.774;12.918;2023-04-08T00:44:49;4.00;99.90
7014;DHT22;3547;50.774;12.918;2023-04-08T00:47:15;4.00;99.90
7014;DHT22;3547;50.774;12.918;2023-04-08T00:49:42;4.10;99.90
7014;DHT22;3547;50.774;12.918;2023-04-08T00:52:09;3.90;99.90
7014;DHT22;3547;50.774;12.918;2023-04-08T00:54:36;3.90;99.90
7014;DHT22;3547;50.774;12.918;2023-04-08T00:57:03;4.00;99.90
7014;DHT22;3547;50.774;12.918;2023-04-08T00:59:30;4.00;99.90
7014;DHT22;3547;50.774;12.918;2023-04-08T01:07:17;3.70;99.90
7014;DHT22;3547;50.774;12.918;2023-04-08T01:09:47;3.80;99.90
7014;DHT22;3547;50.774;12.918;2023-04-08T01:12:21;4.00;99.90
7014;DHT22;3547;50.774;12.918;2023-04-08T01:14:49;4.10;99.90
7014;DHT22;3547;50.774;12.918;2023-04-08T01:17:18;4.10;99.90
7014;DHT22;3547;50.774;12.918;2023-04-08T01:19:46;4.20;99.90
7014;DHT22;3547;50.774;12.918;2023-04-08T01:22:33;4.20;99.90
7014;DHT22;3547;50.774;12.918;2023-04-08T01:25:07;4.30;99.90
7014;DHT22;3547;50.774;12.918;2023-04-08T01:27:36;4.30;99.90
7014;DHT22;3547;50.774;12.918;2023-04-08T01:30:03;4.20;99.90
7014;DHT22;3547;50.774;12.918;2023-04-08T01:32:31;4.10;99.90
7014;DHT22;3547;50.774;12.918;2023-04-08T01:34:59;4.20;99.90
7014;DHT22;3547;50.774;12.918;2023-04-08T01:37:28;4.20;99.90
7014;DHT22;3547;50.774;12.918;2023-04-08T01:39:55;4.10;99.90
7014;DHT22;3547;50.774;12.918;2023-04-08T01:42:26;4.00;99.90
7014;DHT22;3547;50.774;12.918;2023-04-08T01:44:55;4.10;99.90
7014;DHT22;3547;50.774;12.918;2023-04-08T01:47:22;4.00;99.90
7014;DHT22;3547;50.774;12.918;2023-04-08T01:49:51;3.90;99.90
7014;DHT22;3547;50.774;12.918;2023-04-08T01:52:19;3.90;99.90
7014;DHT22;3547;50.774;12.918;2023-04-08T01:54:46;4.00;99.90
7014;DHT22;3547;50.774;12.918;2023-04-08T01:57:21;4.00;99.90
7014;DHT22;3547;50.774;12.918;2023-04-08T01:59:51;4.10;99.90
7014;DHT22;3547;50.774;12.918;2023-04-08T02:02:21;4.10;99.90
7014;DHT22;3547;50.774;12.918;2023-04-08T02:04:49;4.10;99.90
7014;DHT22;3547;50.774;12.918;2023-04-08T02:07:16;4.20;99.90
7014;DHT22;3547;50.774;12.918;2023-04-08T02:09:42;4.30;99.90
7014;DHT22;3547;50.774;12.918;2023-04-08T02:12:09;4.30;99.90
7014;DHT22;3547;50.774;12.918;2023-04-08T02:14:35;4.20;99.90
7014;DHT22;3547;50.774;12.918;2023-04-08T02:17:10;4.20;99.90
7014;DHT22;3547;50.774;12.918;2023-04-08T02:19:47;4.30;99.90
7014;DHT22;3547;50.774;12.918;2023-04-08T02:22:54;4.30;99.90
7014;DHT22;3547;50.774;12.918;2023-04-08T02:25:24;4.30;99.90
7014;DHT22;3547;50.774;12.918;2023-04-08T02:27:54;4.30;99.90
7014;DHT22;3547;50.774;12.918;2023-04-08T02:30:22;4.30;99.90
7014;DHT22;3547;50.774;12.918;2023-04-08T02:32:50;4.40;99.90
7014;DHT22;3547;50.774;12.918;2023-04-08T02:35:19;4.40;99.90
7014;DHT22;3547;50.774;12.918;2023-04-08T02:37:46;4.30;99.90
7014;DHT22;3547;50.774;12.918;2023-04-08T02:40:29;4.30;99.90
7014;DHT22;3547;50.774;12.918;2023-04-08T02:42:57;4.40;99.90
7014;DHT22;3547;50.774;12.918;2023-04-08T02:45:32;4.50;99.90
7014;DHT22;3547;50.774;12.918;2023-04-08T02:48:01;4.50;99.90
7014;DHT22;3547;50.774;12.918;2023-04-08T02:50:27;4.50;99.90
7014;DHT22;3547;50.774;12.918;2023-04-08T02:52:53;4.50;99.90
7014;DHT22;3547;50.774;12.918;2023-04-08T02:55:20;4.50;99.90
7014;DHT22;3547;50.774;12.918;2023-04-08T02:57:47;4.50;99.90
7014;DHT22;3547;50.774;12.918;2023-04-08T03:00:13;4.50;99.90
7014;DHT22;3547;50.774;12.918;2023-04-08T03:02:40;4.50;99.90
7014;DHT22;3547;50.774;12.918;2023-04-08T03:05:09;4.50;99.90
7014;DHT22;3547;50.774;12.918;2023-04-08T03:07:37;4.50;99.90
7014;DHT22;3547;50.774;12.918;2023-04-08T03:10:03;4.60;99.90
7014;DHT22;3547;50.774;12.918;2023-04-08T03:12:30;4.60;99.90
7014;DHT22;3547;50.774;12.918;2023-04-08T03:14:56;4.60;99.90
7014;DHT22;3547;50.774;12.918;2023-04-08T03:17:22;4.60;99.90
7014;DHT22;3547;50.774;12.918;2023-04-08T03:19:48;4.50;99.90
7014;DHT22;3547;50.774;12.918;2023-04-08T03:22:37;4.50;99.90
7014;DHT22;3547;50.774;12.918;2023-04-08T03:25:03;4.60;99.90
7014;DHT22;3547;50.774;12.918;2023-04-08T03:27:30;4.60;99.90
7014;DHT22;3547;50.774;12.918;2023-04-08T03:29:56;4.60;99.90
7014;DHT22;3547;50.774;12.918;2023-04-08T03:32:22;4.50;99.90
7014;DHT22;3547;50.774;12.918;2023-04-08T03:34:48;4.30;1.00
7014;DHT22;3547;50.774;12.918;2023-04-08T03:37:18;4.40;1.00
7014;DHT22;3547;50.774;12.918;2023-04-08T03:39:44;4.40;1.00
7014;DHT22;3547;50.774;12.918;2023-04-08T03:42:11;4.40;1.00
7014;DHT22;3547;50.774;12.918;2023-04-08T03:44:37;4.50;1.00
7014;DHT22;3547;50.774;12.918;2023-04-08T03:47:03;4.60;1.00
7014;DHT22;3547;50.774;12.918;2023-04-08T03:49:29;4.60;1.00
7014;DHT22;3547;50.774;12.918;2023-04-08T03:51:55;4.70;1.00
7014;DHT22;3547;50.774;12.918;2023-04-08T03:54:22;4.70;1.00
7014;DHT22;3547;50.774;12.918;2023-04-08T03:56:49;4.70;1.00
7014;DHT22;3547;50.774;12.918;2023-04-08T03:59:15;4.60;1.00
7014;DHT22;3547;50.774;12.918;2023-04-08T04:01:41;4.60;1.00
7014;DHT22;3547;50.774;12.918;2023-04-08T04:04:07;4.70;1.00
7014;DHT22;3547;50.774;12.918;2023-04-08T04:06:33;4.70;1.00
7014;DHT22;3547;50.774;12.918;2023-04-08T04:09:00;4.70;1.00
7014;DHT22;3547;50.774;12.918;2023-04-08T04:11:26;4.60;1.00
7014;DHT22;3547;50.774;12.918;2023-04-08T04:13:52;4.60;1.00
7014;DHT22;3547;50.774;12.918;2023-04-08T04:16:18;4.70;1.00
7014;DHT22;3547;50.774;12.918;2023-04-08T04:18:44;4.70;1.00
7014;DHT22;3547;50.774;12.918;2023-04-08T04:21:10;4.60;1.00
7014;DHT22;3547;50.774;12.918;2023-04-08T04:23:36;4.60;1.00
7014;DHT22;3547;50.774;12.918;2023-04-08T04:26:09;4.60;1.00
7014;DHT22;3547;50.774;12.918;2023-04-08T04:28:36;4.50;1.00
7014;DHT22;3547;50.774;12.918;2023-04-08T04:31:06;4.60;1.00
7014;DHT22;3547;50.774;12.918;2023-04-08T04:33:32;4.50;1.00
7014;DHT22;3547;50.774;12.918;2023-04-08T04:35:58;4.50;1.00
7014;DHT22;3547;50.774;12.918;2023-04-08T04:38:25;4.40;1.00
7014;DHT22;3547;50.774;12.918;2023-04-08T04:40:51;4.30;37.80
7014;DHT22;3547;50.774;12.918;2023-04-08T04:43:18;4.30;99.90
7014;DHT22;3547;50.774;12.918;2023-04-08T04:45:44;4.30;99.90
7014;DHT22;3547;50.774;12.918;2023-04-08T04:48:10;4.40;99.90
7014;DHT22;3547;50.774;12.918;2023-04-08T04:50:36;4.50;18.80
7014;DHT22;3547;50.774;12.918;2023-04-08T04:53:02;4.50;27.90
7014;DHT22;3547;50.774;12.918;2023-04-08T04:55:28;4.40;92.20
7014;DHT22;3547;50.774;12.918;2023-04-08T04:57:55;4.30;99.90
7014;DHT22;3547;50.774;12.918;2023-04-08T05:00:21;4.40;99.90
7014;DHT22;3547;50.774;12.918;2023-04-08T05:02:49;4.40;99.90
7014;DHT22;3547;50.774;12.918;2023-04-08T05:05:17;4.50;39.60
7014;DHT22;3547;50.774;12.918;2023-04-08T05:07:43;4.50;99.90
7014;DHT22;3547;50.774;12.918;2023-04-08T05:10:12;4.40;99.90
7014;DHT22;3547;50.774;12.918;2023-04-08T05:12:38;4.50;99.90
7014;DHT22;3547;50.774;12.918;2023-04-08T05:15:05;4.50;99.90
7014;DHT22;3547;50.774;12.918;2023-04-08T05:17:37;4.20;1.00
7014;DHT22;3547;50.774;12.918;2023-04-08T05:20:04;4.40;99.90
7014;DHT22;3547;50.774;12.918;2023-04-08T05:22:33;4.50;99.90
7014;DHT22;3547;50.774;12.918;2023-04-08T05:24:59;4.60;99.90
7014;DHT22;3547;50.774;12.918;2023-04-08T05:27:25;4.50;99.90
7014;DHT22;3547;50.774;12.918;2023-04-08T05:29:52;4.50;99.90
7014;DHT22;3547;50.774;12.918;2023-04-08T05:32:18;4.40;99.90
7014;DHT22;3547;50.774;12.918;2023-04-08T05:34:44;4.50;99.90
7014;DHT22;3547;50.774;12.918;2023-04-08T05:37:13;4.30;1.00
7014;DHT22;3547;50.774;12.918;2023-04-08T05:39:39;4.10;99.90
7014;DHT22;3547;50.774;12.918;2023-04-08T05:42:07;4.10;99.90
7014;DHT22;3547;50.774;12.918;2023-04-08T05:44:33;4.10;34.10
7014;DHT22;3547;50.774;12.918;2023-04-08T05:46:59;4.30;13.50
7014;DHT22;3547;50.774;12.918;2023-04-08T05:49:25;4.40;99.90
7014;DHT22;3547;50.774;12.918;2023-04-08T05:51:52;4.50;1.00
7014;DHT22;3547;50.774;12.918;2023-04-08T05:54:25;4.50;99.90
7014;DHT22;3547;50.774;12.918;2023-04-08T05:56:52;4.30;99.90
7014;DHT22;3547;50.774;12.918;2023-04-08T05:59:18;4.20;28.50
7014;DHT22;3547;50.774;12.918;2023-04-08T06:01:44;4.30;1.00
7014;DHT22;3547;50.774;12.918;2023-04-08T06:04:12;4.20;99.90
7014;DHT22;3547;50.774;12.918;2023-04-08T06:06:38;4.20;99.90
7014;DHT22;3547;50.774;12.918;2023-04-08T06:09:05;4.40;1.00
7014;DHT22;3547;50.774;12.918;2023-04-08T06:11:49;4.50;1.00
7014;DHT22;3547;50.774;12.918;2023-04-08T06:14:20;4.60;99.90
7014;DHT22;3547;50.774;12.918;2023-04-08T06:16:47;4.70;99.90
7014;DHT22;3547;50.774;12.918;2023-04-08T06:19:13;4.40;1.00
7014;DHT22;3547;50.774;12.918;2023-04-08T06:21:39;4.50;8.80
7014;DHT22;3547;50.774;12.918;2023-04-08T06:24:05;4.60;1.00
7014;DHT22;3547;50.774;12.918;2023-04-08T06:26:31;4.70;99.90
7014;DHT22;3547;50.774;12.918;2023-04-08T06:28:57;4.80;1.00
7014;DHT22;3547;50.774;12.918;2023-04-08T06:31:23;4.80;1.00
7014;DHT22;3547;50.774;12.918;2023-04-08T06:33:50;4.80;1.00
7014;DHT22;3547;50.774;12.918;2023-04-08T06:36:20;4.90;1.00
7014;DHT22;3547;50.774;12.918;2023-04-08T06:38:46;4.80;1.00
7014;DHT22;3547;50.774;12.918;2023-04-08T06:41:13;4.80;1.00
7014;DHT22;3547;50.774;12.918;2023-04-08T06:43:39;4.90;1.00
7014;DHT22;3547;50.774;12.918;2023-04-08T06:48:41;4.90;1.00
7014;DHT22;3547;50.774;12.918;2023-04-08T06:51:13;4.70;1.00
7014;DHT22;3547;50.774;12.918;2023-04-08T06:53:49;4.80;87.60
7014;DHT22;3547;50.774;12.918;2023-04-08T06:56:15;4.90;1.00
7014;DHT22;3547;50.774;12.918;2023-04-08T06:58:42;5.00;1.00
7014;DHT22;3547;50.774;12.918;2023-04-08T07:01:08;5.00;1.00
7014;DHT22;3547;50.774;12.918;2023-04-08T07:03:34;5.00;1.00
7014;DHT22;3547;50.774;12.918;2023-04-08T07:06:31;5.00;1.00
7014;DHT22;3547;50.774;12.918;2023-04-08T07:08:58;5.20;1.00
7014;DHT22;3547;50.774;12.918;2023-04-08T07:11:24;5.20;1.00
7014;DHT22;3547;50.774;12.918;2023-04-08T07:13:51;5.30;99.90
7014;DHT22;3547;50.774;12.918;2023-04-08T07:16:17;5.40;99.90
7014;DHT22;3547;50.774;12.918;2023-04-08T07:18:43;5.30;99.90
7014;DHT22;3547;50.774;12.918;2023-04-08T07:21:09;5.30;99.90
7014;DHT22;3547;50.774;12.918;2023-04-08T07:23:36;5.50;99.90
7014;DHT22;3547;50.774;12.918;2023-04-08T07:26:03;5.40;99.90
7014;DHT22;3547;50.774;12.918;2023-04-08T07:28:32;5.50;99.90
7014;DHT22;3547;50.774;12.918;2023-04-08T07:31:13;5.60;99.90
7014;DHT22;3547;50.774;12.918;2023-04-08T07:39:03;5.70;65.00
7014;DHT22;3547;50.774;12.918;2023-04-08T07:41:29;5.70;78.20
7014;DHT22;3547;50.774;12.918;2023-04-08T07:43:58;5.80;48.20
7014;DHT22;3547;50.774;12.918;2023-04-08T07:46:25;5.60;70.80
7014;DHT22;3547;50.774;12.918;2023-04-08T07:48:51;5.70;50.30
7014;DHT22;3547;50.774;12.918;2023-04-08T07:51:17;5.70;46.10
7014;DHT22;3547;50.774;12.918;2023-04-08T07:53:43;5.70;57.50
7014;DHT22;3547;50.774;12.918;2023-04-08T07:56:14;5.70;58.30
7014;DHT22;3547;50.774;12.918;2023-04-08T07:58:44;5.80;59.20
7014;DHT22;3547;50.774;12.918;2023-04-08T08:01:20;5.80;60.40
7014;DHT22;3547;50.774;12.918;2023-04-08T08:03:50;5.80;64.80
7014;DHT22;3547;50.774;12.918;2023-04-08T08:06:17;5.80;56.50
7014;DHT22;3547;50.774;12.918;2023-04-08T08:08:43;5.90;50.30
7014;DHT22;3547;50.774;12.918;2023-04-08T08:11:12;6.00;47.70
7014;DHT22;3547;50.774;12.918;2023-04-08T08:13:39;6.00;75.70
7014;DHT22;3547;50.774;12.918;2023-04-08T08:16:05;6.00;77.20
7014;DHT22;3547;50.774;12.918;2023-04-08T08:18:34;6.10;81.00
7014;DHT22;3547;50.774;12.918;2023-04-08T08:21:01;6.10;53.60
7014;DHT22;3547;50.774;12.918;2023-04-08T08:23:30;6.20;67.20
7014;DHT22;3547;50.774;12.918;2023-04-08T08:26:04;6.40;38.40
7014;DHT22;3547;50.774;12.918;2023-04-08T08:28:32;6.50;34.40
7014;DHT22;3547;50.774;12.918;2023-04-08T08:30:58;6.50;35.60
7014;DHT22;3547;50.774;12.918;2023-04-08T08:33:24;6.40;22.60
7014;DHT22;3547;50.774;12.918;2023-04-08T08:35:51;6.50;28.00
7014;DHT22;3547;50.774;12.918;2023-04-08T08:38:17;6.40;28.00
7014;DHT22;3547;50.774;12.918;2023-04-08T08:40:44;6.40;26.00
7014;DHT22;3547;50.774;12.918;2023-04-08T08:43:14;6.40;11.10
7014;DHT22;3547;50.774;12.918;2023-04-08T08:45:41;6.50;30.20
7014;DHT22;3547;50.774;12.918;2023-04-08T08:48:08;6.70;23.60
7014;DHT22;3547;50.774;12.918;2023-04-08T08:50:34;6.70;24.30
7014;DHT22;3547;50.774;12.918;2023-04-08T08:53:01;6.70;35.60
7014;DHT22;3547;50.774;12.918;2023-04-08T08:55:30;6.70;14.30
7014;DHT22;3547;50.774;12.918;2023-04-08T08:58:00;6.60;8.60
7014;DHT22;3547;50.774;12.918;2023-04-08T09:00:31;6.40;51.60
7014;DHT22;3547;50.774;12.918;2023-04-08T09:03:17;6.50;47.10
7014;DHT22;3547;50.774;12.918;2023-04-08T09:05:52;6.60;37.90
7014;DHT22;3547;50.774;12.918;2023-04-08T09:08:35;6.70;34.70
7014;DHT22;3547;50.774;12.918;2023-04-08T09:11:19;6.70;39.00
7014;DHT22;3547;50.774;12.918;2023-04-08T09:13:46;6.90;29.40
7014;DHT22;3547;50.774;12.918;2023-04-08T09:16:14;7.00;54.60
7014;DHT22;3547;50.774;12.918;2023-04-08T09:18:43;7.00;44.30
7014;DHT22;3547;50.774;12.918;2023-04-08T09:21:12;7.10;23.10
7014;DHT22;3547;50.774;12.918;2023-04-08T09:23:47;7.20;28.80
7014;DHT22;3547;50.774;12.918;2023-04-08T09:26:15;7.30;21.60
7014;DHT22;3547;50.774;12.918;2023-04-08T09:28:43;7.50;22.10
7014;DHT22;3547;50.774;12.918;2023-04-08T09:31:24;7.60;4.10
7014;DHT22;3547;50.774;12.918;2023-04-08T09:33:53;7.70;1.00
7014;DHT22;3547;50.774;12.918;2023-04-08T09:36:19;7.80;1.00
7014;DHT22;3547;50.774;12.918;2023-04-08T09:38:46;8.10;1.40
7014;DHT22;3547;50.774;12.918;2023-04-08T09:41:14;8.30;1.00
7014;DHT22;3547;50.774;12.918;2023-04-08T09:43:43;8.40;1.00
7014;DHT22;3547;50.774;12.918;2023-04-08T09:46:15;8.60;1.00
7014;DHT22;3547;50.774;12.918;2023-04-08T09:49:05;8.80;1.00
7014;DHT22;3547;50.774;12.918;2023-04-08T09:51:44;9.10;1.00
7014;DHT22;3547;50.774;12.918;2023-04-08T09:54:19;9.10;1.00
7014;DHT22;3547;50.774;12.918;2023-04-08T09:57:13;9.00;1.00
7014;DHT22;3547;50.774;12.918;2023-04-08T09:59:56;9.10;1.00
7014;DHT22;3547;50.774;12.918;2023-04-08T10:02:28;8.80;1.00
7014;DHT22;3547;50.774;12.918;2023-04-08T10:04:58;8.70;1.00
7014;DHT22;3547;50.774;12.918;2023-04-08T10:07:26;8.50;1.00
7014;DHT22;3547;50.774;12.918;2023-04-08T10:09:52;8.60;1.00
7014;DHT22;3547;50.774;12.918;2023-04-08T10:12:18;8.70;1.00
7014;DHT22;3547;50.774;12.918;2023-04-08T10:15:22;8.70;1.00
7014;DHT22;3547;50.774;12.918;2023-04-08T10:17:53;8.70;1.00
7014;DHT22;3547;50.774;12.918;2023-04-08T10:23:04;8.40;1.00
7014;DHT22;3547;50.774;12.918;2023-04-08T10:30:42;8.20;1.00
7014;DHT22;3547;50.774;12.918;2023-04-08T10:36:11;8.20;1.00
7014;DHT22;3547;50.774;12.918;2023-04-08T10:38:38;8.10;1.00
7014;DHT22;3547;50.774;12.918;2023-04-08T10:41:09;8.30;1.00
7014;DHT22;3547;50.774;12.918;2023-04-08T10:43:38;8.60;1.00
7014;DHT22;3547;50.774;12.918;2023-04-08T10:46:09;8.90;1.00
7014;DHT22;3547;50.774;12.918;2023-04-08T10:48:36;9.20;1.00
7014;DHT22;3547;50.774;12.918;2023-04-08T10:51:03;9.50;1.00
7014;DHT22;3547;50.774;12.918;2023-04-08T10:53:37;9.60;1.00
7014;DHT22;3547;50.774;12.918;2023-04-08T10:56:11;9.60;1.00
7014;DHT22;3547;50.774;12.918;2023-04-08T10:58:51;9.40;1.00
7014;DHT22;3547;50.774;12.918;2023-04-08T11:01:18;9.40;1.00
7014;DHT22;3547;50.774;12.918;2023-04-08T11:03:44;9.40;1.00
7014;DHT22;3547;50.774;12.918;2023-04-08T11:06:11;9.50;1.00
7014;DHT22;3547;50.774;12.918;2023-04-08T11:08:37;9.60;1.00
7014;DHT22;3547;50.774;12.918;2023-04-08T11:11:04;9.80;1.00
7014;DHT22;3547;50.774;12.918;2023-04-08T11:13:40;10.20;1.00
7014;DHT22;3547;50.774;12.918;2023-04-08T11:16:07;10.60;1.00
7014;DHT22;3547;50.774;12.918;2023-04-08T11:18:35;10.90;1.00
7014;DHT22;3547;50.774;12.918;2023-04-08T11:21:05;10.80;1.00
7014;DHT22;3547;50.774;12.918;2023-04-08T11:23:33;10.50;1.00
7014;DHT22;3547;50.774;12.918;2023-04-08T11:25:59;10.20;1.00
7014;DHT22;3547;50.774;12.918;2023-04-08T11:28:25;10.10;1.00
7014;DHT22;3547;50.774;12.918;2023-04-08T11:30:53;9.70;1.00
7014;DHT22;3547;50.774;12.918;2023-04-08T11:33:20;9.70;1.00
7014;DHT22;3547;50.774;12.918;2023-04-08T11:35:50;9.60;1.00
7014;DHT22;3547;50.774;12.918;2023-04-08T11:38:21;9.60;1.00
7014;DHT22;3547;50.774;12.918;2023-04-08T11:40:52;9.60;1.00
7014;DHT22;3547;50.774;12.918;2023-04-08T11:43:19;9.70;1.00
7014;DHT22;3547;50.774;12.918;2023-04-08T11:45:45;9.90;1.00
7014;DHT22;3547;50.774;12.918;2023-04-08T11:48:12;10.00;1.00
7014;DHT22;3547;50.774;12.918;2023-04-08T11:50:39;10.10;1.00
7014;DHT22;3547;50.774;12.918;2023-04-08T11:53:19;10.10;1.00
7014;DHT22;3547;50.774;12.918;2023-04-08T11:55:46;10.20;1.00
7014;DHT22;3547;50.774;12.918;2023-04-08T11:58:13;10.10;1.00
7014;DHT22;3547;50.774;12.918;2023-04-08T12:00:40;9.90;99.90
7014;DHT22;3547;50.774;12.918;2023-04-08T12:03:06;9.70;99.90
7014;DHT22;3547;50.774;12.918;2023-04-08T12:05:33;9.70;99.90
7014;DHT22;3547;50.774;12.918;2023-04-08T12:07:59;9.60;99.90
7014;DHT22;3547;50.774;12.918;2023-04-08T12:10:25;9.70;99.90
7014;DHT22;3547;50.774;12.918;2023-04-08T12:12:52;9.80;1.00
7014;DHT22;3547;50.774;12.918;2023-04-08T12:15:18;10.10;1.00
7014;DHT22;3547;50.774;12.918;2023-04-08T12:17:44;10.30;1.00
7014;DHT22;3547;50.774;12.918;2023-04-08T12:20:11;10.40;1.00
7014;DHT22;3547;50.774;12.918;2023-04-08T12:22:42;10.30;99.90
7014;DHT22;3547;50.774;12.918;2023-04-08T12:25:08;10.20;99.90
7014;DHT22;3547;50.774;12.918;2023-04-08T12:27:34;10.00;99.90
7014;DHT22;3547;50.774;12.918;2023-04-08T12:30:01;9.90;99.90
7014;DHT22;3547;50.774;12.918;2023-04-08T12:32:28;9.60;99.90
7014;DHT22;3547;50.774;12.918;2023-04-08T12:34:54;9.50;99.90
7014;DHT22;3547;50.774;12.918;2023-04-08T12:37:20;9.40;99.90
7014;DHT22;3547;50.774;12.918;2023-04-08T12:39:47;9.20;99.90
7014;DHT22;3547;50.774;12.918;2023-04-08T12:42:13;9.10;99.90
7014;DHT22;3547;50.774;12.918;2023-04-08T12:44:39;9.10;99.90
7014;DHT22;3547;50.774;12.918;2023-04-08T12:47:05;8.90;99.90
7014;DHT22;3547;50.774;12.918;2023-04-08T12:49:31;9.00;99.90
7014;DHT22;3547;50.774;12.918;2023-04-08T12:51:57;9.10;99.90
7014;DHT22;3547;50.774;12.918;2023-04-08T12:54:24;9.40;99.90
7014;DHT22;3547;50.774;12.918;2023-04-08T12:56:50;9.50;99.90
7014;DHT22;3547;50.774;12.918;2023-04-08T12:59:16;9.60;99.90
7014;DHT22;3547;50.774;12.918;2023-04-08T13:01:42;9.70;99.90
7014;DHT22;3547;50.774;12.918;2023-04-08T13:04:08;9.70;99.90
7014;DHT22;3547;50.774;12.918;2023-04-08T13:06:34;9.70;99.90
7014;DHT22;3547;50.774;12.918;2023-04-08T13:09:01;9.70;99.90
7014;DHT22;3547;50.774;12.918;2023-04-08T13:11:27;9.50;99.90
7014;DHT22;3547;50.774;12.918;2023-04-08T13:13:53;9.50;99.90
7014;DHT22;3547;50.774;12.918;2023-04-08T13:16:19;9.40;99.90
7014;DHT22;3547;50.774;12.918;2023-04-08T13:18:47;9.40;99.90
7014;DHT22;3547;50.774;12.918;2023-04-08T13:21:13;9.30;99.90
7014;DHT22;3547;50.774;12.918;2023-04-08T13:23:39;9.20;99.90
7014;DHT22;3547;50.774;12.918;2023-04-08T13:26:05;9.20;99.90
7014;DHT22;3547;50.774;12.918;2023-04-08T13:28:32;9.30;99.90
7014;DHT22;3547;50.774;12.918;2023-04-08T13:30:58;9.40;99.90
7014;DHT22;3547;50.774;12.918;2023-04-08T13:33:24;9.50;99.90
7014;DHT22;3547;50.774;12.918;2023-04-08T13:35:52;9.60;99.90
7014;DHT22;3547;50.774;12.918;2023-04-08T13:38:20;9.70;99.90
7014;DHT22;3547;50.774;12.918;2023-04-08T13:40:46;9.80;99.90
7014;DHT22;3547;50.774;12.918;2023-04-08T13:43:12;9.90;99.90
7014;DHT22;3547;50.774;12.918;2023-04-08T13:45:39;9.90;99.90
7014;DHT22;3547;50.774;12.918;2023-04-08T13:48:05;9.90;99.90
7014;DHT22;3547;50.774;12.918;2023-04-08T13:50:31;9.90;99.90
7014;DHT22;3547;50.774;12.918;2023-04-08T13:52:57;9.80;99.90
7014;DHT22;3547;50.774;12.918;2023-04-08T13:55:23;9.70;99.90
7014;DHT22;3547;50.774;12.918;2023-04-08T13:57:50;9.60;99.90
7014;DHT22;3547;50.774;12.918;2023-04-08T14:00:16;9.60;99.90
7014;DHT22;3547;50.774;12.918;2023-04-08T14:02:42;9.70;99.90
7014;DHT22;3547;50.774;12.918;2023-04-08T14:05:08;9.80;99.90
7014;DHT22;3547;50.774;12.918;2023-04-08T14:07:34;9.70;99.90
7014;DHT22;3547;50.774;12.918;2023-04-08T14:10:01;9.70;99.90
7014;DHT22;3547;50.774;12.918;2023-04-08T14:12:27;9.70;99.90
7014;DHT22;3547;50.774;12.918;2023-04-08T14:14:53;9.70;99.90
7014;DHT22;3547;50.774;12.918;2023-04-08T14:17:19;9.60;99.90
7014;DHT22;3547;50.774;12.918;2023-04-08T14:19:45;9.60;99.90
7014;DHT22;3547;50.774;12.918;2023-04-08T14:22:11;9.50;99.90
7014;DHT22;3547;50.774;12.918;2023-04-08T14:24:37;9.40;99.90
7014;DHT22;3547;50.774;12.918;2023-04-08T14:27:03;9.30;99.90
7014;DHT22;3547;50.774;12.918;2023-04-08T14:29:30;9.40;99.90
7014;DHT22;3547;50.774;12.918;2023-04-08T14:31:56;9.30;99.90
7014;DHT22;3547;50.774;12.918;2023-04-08T14:34:22;9.40;99.90
7014;DHT22;3547;50.774;12.918;2023-04-08T14:36:48;9.30;99.90
7014;DHT22;3547;50.774;12.918;2023-04-08T14:39:14;9.30;99.90
7014;DHT22;3547;50.774;12.918;2023-04-08T14:41:40;9.40;99.90
7014;DHT22;3547;50.774;12.918;2023-04-08T14:44:06;9.40;99.90
7014;DHT22;3547;50.774;12.918;2023-04-08T14:46:33;9.50;99.90
7014;DHT22;3547;50.774;12.918;2023-04-08T14:48:59;9.40;99.90
7014;DHT22;3547;50.774;12.918;2023-04-08T14:51:25;9.20;99.90
7014;DHT22;3547;50.774;12.918;2023-04-08T14:53:52;9.00;99.90
7014;DHT22;3547;50.774;12.918;2023-04-08T14:56:18;8.60;99.90
7014;DHT22;3547;50.774;12.918;2023-04-08T14:58:44;8.60;99.90
7014;DHT22;3547;50.774;12.918;2023-04-08T15:01:10;8.50;99.90
7014;DHT22;3547;50.774;12.918;2023-04-08T15:03:36;8.50;99.90
7014;DHT22;3547;50.774;12.918;2023-04-08T15:06:03;8.40;99.90
7014;DHT22;3547;50.774;12.918;2023-04-08T15:08:29;8.40;99.90
7014;DHT22;3547;50.774;12.918;2023-04-08T15:10:55;8.40;99.90
7014;DHT22;3547;50.774;12.918;2023-04-08T15:13:22;8.40;99.90
7014;DHT22;3547;50.774;12.918;2023-04-08T15:15:48;8.40;99.90
7014;DHT22;3547;50.774;12.918;2023-04-08T15:18:14;8.40;99.90
7014;DHT22;3547;50.774;12.918;2023-04-08T15:20:40;8.50;99.90
7014;DHT22;3547;50.774;12.918;2023-04-08T15:23:07;8.50;99.90
7014;DHT22;3547;50.774;12.918;2023-04-08T15:25:33;8.50;99.90
7014;DHT22;3547;50.774;12.918;2023-04-08T15:27:59;8.60;99.90
7014;DHT22;3547;50.774;12.918;2023-04-08T15:30:28;8.60;99.90
7014;DHT22;3547;50.774;12.918;2023-04-08T15:33:01;8.60;99.90
7014;DHT22;3547;50.774;12.918;2023-04-08T15:35:28;8.50;99.90
7014;DHT22;3547;50.774;12.918;2023-04-08T15:37:54;8.60;99.90
7014;DHT22;3547;50.774;12.918;2023-04-08T15:40:20;8.60;99.90
7014;DHT22;3547;50.774;12.918;2023-04-08T15:42:46;8.60;99.90
7014;DHT22;3547;50.774;12.918;2023-04-08T15:45:13;8.40;99.90
7014;DHT22;3547;50.774;12.918;2023-04-08T15:47:39;8.40;99.90
7014;DHT22;3547;50.774;12.918;2023-04-08T15:50:06;8.30;99.90
7014;DHT22;3547;50.774;12.918;2023-04-08T15:52:33;8.30;99.90
7014;DHT22;3547;50.774;12.918;2023-04-08T15:55:00;8.20;99.90
7014;DHT22;3547;50.774;12.918;2023-04-08T15:57:27;8.10;99.90
7014;DHT22;3547;50.774;12.918;2023-04-08T15:59:55;8.10;99.90
7014;DHT22;3547;50.774;12.918;2023-04-08T16:02:21;8.10;99.90
7014;DHT22;3547;50.774;12.918;2023-04-08T16:04:48;8.00;99.90
7014;DHT22;3547;50.774;12.918;2023-04-08T16:07:14;8.00;99.90
7014;DHT22;3547;50.774;12.918;2023-04-08T16:09:41;7.90;99.90
7014;DHT22;3547;50.774;12.918;2023-04-08T16:12:08;7.90;99.90
7014;DHT22;3547;50.774;12.918;2023-04-08T16:14:34;7.90;99.90
7014;DHT22;3547;50.774;12.918;2023-04-08T16:17:01;7.80;99.90
7014;DHT22;3547;50.774;12.918;2023-04-08T16:19:27;7.80;99.90
7014;DHT22;3547;50.774;12.918;2023-04-08T16:21:53;7.80;99.90
7014;DHT22;3547;50.774;12.918;2023-04-08T16:24:20;7.80;99.90
7014;DHT22;3547;50.774;12.918;2023-04-08T16:26:46;7.70;99.90
7014;DHT22;3547;50.774;12.918;2023-04-08T16:29:12;7.70;99.90
7014;DHT22;3547;50.774;12.918;2023-04-08T16:31:38;7.60;99.90
7014;DHT22;3547;50.774;12.918;2023-04-08T16:34:04;7.70;99.90